sensor_id;sensor_type;location;lat;lon;timestamp;P1;durP1;ratioP1;P2;durP2;ratioP2
55655;SDS011;41530;52.382;5.270;2023-01-19T00:00:47;1.52;;;0.55;;
55655;SDS011;41530;52.382;5.270;2023-01-19T00:03:14;1.35;;;0.40;;
55655;SDS011;41530;52.382;5.270;2023-01-19T00:05:45;0.32;;;0.20;;
55655;SDS011;41530;52.382;5.270;2023-01-19T00:08:12;0.68;;;0.30;;
55655;SDS011;41530;52.382;5.270;2023-01-19T00:10:43;2.50;;;0.55;;
55655;SDS011;41530;52.382;5.270;2023-01-19T00:13:11;0.90;;;0.28;;
55655;SDS011;41530;52.382;5.270;2023-01-19T00:15:38;0.40;;;0.38;;
55655;SDS011;41530;52.382;5.270;2023-01-19T00:18:04;1.02;;;0.30;;
55655;SDS011;41530;52.382;5.270;2023-01-19T00:20:31;0.35;;;0.25;;
55655;SDS011;41530;52.382;5.270;2023-01-19T00:22:58;0.75;;;0.40;;
55655;SDS011;41530;52.382;5.270;2023-01-19T00:25:25;3.78;;;0.30;;
55655;SDS011;41530;52.382;5.270;2023-01-19T00:27:52;1.50;;;0.35;;
55655;SDS011;41530;52.382;5.270;2023-01-19T00:30:19;0.30;;;0.20;;
55655;SDS011;41530;52.382;5.270;2023-01-19T00:32:46;0.20;;;0.20;;
55655;SDS011;41530;52.382;5.270;2023-01-19T00:35:13;1.30;;;0.40;;
55655;SDS011;41530;52.382;5.270;2023-01-19T00:37:39;1.05;;;0.40;;
55655;SDS011;41530;52.382;5.270;2023-01-19T00:40:07;0.47;;;0.20;;
55655;SDS011;41530;52.382;5.270;2023-01-19T00:42:33;1.27;;;0.40;;
55655;SDS011;41530;52.382;5.270;2023-01-19T00:45:07;0.25;;;0.17;;
55655;SDS011;41530;52.382;5.270;2023-01-19T00:47:33;1.30;;;0.20;;
55655;SDS011;41530;52.382;5.270;2023-01-19T00:50:00;1.83;;;0.30;;
55655;SDS011;41530;52.382;5.270;2023-01-19T00:52:26;1.65;;;0.20;;
55655;SDS011;41530;52.382;5.270;2023-01-19T00:54:52;1.90;;;0.30;;
55655;SDS011;41530;52.382;5.270;2023-01-19T00:57:19;0.90;;;0.30;;
55655;SDS011;41530;52.382;5.270;2023-01-19T00:59:46;0.88;;;0.30;;
55655;SDS011;41530;52.382;5.270;2023-01-19T01:02:12;2.15;;;0.40;;
55655;SDS011;41530;52.382;5.270;2023-01-19T01:04:39;2.40;;;0.50;;
55655;SDS011;41530;52.382;5.270;2023-01-19T01:07:06;0.75;;;0.35;;
55655;SDS011;41530;52.382;5.270;2023-01-19T01:09:32;1.08;;;0.40;;
55655;SDS011;41530;52.382;5.270;2023-01-19T01:11:59;0.45;;;0.32;;
55655;SDS011;41530;52.382;5.270;2023-01-19T01:14:26;1.23;;;0.40;;
55655;SDS011;41530;52.382;5.270;2023-01-19T01:16:52;1.52;;;0.40;;
55655;SDS011;41530;52.382;5.270;2023-01-19T01:19:20;1.17;;;0.30;;
55655;SDS011;41530;52.382;5.270;2023-01-19T01:21:46;1.17;;;0.40;;
55655;SDS011;41530;52.382;5.270;2023-01-19T01:24:13;0.60;;;0.40;;
55655;SDS011;41530;52.382;5.270;2023-01-19T01:26:39;1.92;;;0.40;;
55655;SDS011;41530;52.382;5.270;2023-01-19T01:29:06;1.10;;;0.30;;
55655;SDS011;41530;52.382;5.270;2023-01-19T01:31:33;0.70;;;0.20;;
55655;SDS011;41530;52.382;5.270;2023-01-19T01:34:00;0.75;;;0.20;;
55655;SDS011;41530;52.382;5.270;2023-01-19T01:36:27;0.40;;;0.30;;
55655;SDS011;41530;52.382;5.270;2023-01-19T01:38:57;0.68;;;0.30;;
55655;SDS011;41530;52.382;5.270;2023-01-19T01:41:23;2.08;;;0.30;;
55655;SDS011;41530;52.382;5.270;2023-01-19T01:43:53;1.23;;;0.30;;
55655;SDS011;41530;52.382;5.270;2023-01-19T01:46:21;0.20;;;0.20;;
55655;SDS011;41530;52.382;5.270;2023-01-19T01:51:21;1.95;;;0.30;;
55655;SDS011;41530;52.382;5.270;2023-01-19T01:53:57;0.32;;;0.20;;
55655;SDS011;41530;52.382;5.270;2023-01-19T01:56:29;1.25;;;0.30;;
55655;SDS011;41530;52.382;5.270;2023-01-19T01:58:57;2.83;;;0.30;;
55655;SDS011;41530;52.382;5.270;2023-01-19T02:01:25;0.82;;;0.32;;
55655;SDS011;41530;52.382;5.270;2023-01-19T02:04:10;1.60;;;0.30;;
55655;SDS011;41530;52.382;5.270;2023-01-19T02:06:36;1.50;;;0.28;;
55655;SDS011;41530;52.382;5.270;2023-01-19T02:09:22;2.40;;;0.50;;
55655;SDS011;41530;52.382;5.270;2023-01-19T02:12:07;2.75;;;0.45;;
55655;SDS011;41530;52.382;5.270;2023-01-19T02:14:52;2.70;;;0.30;;
55655;SDS011;41530;52.382;5.270;2023-01-19T02:17:20;1.50;;;0.50;;
55655;SDS011;41530;52.382;5.270;2023-01-19T02:19:47;3.55;;;0.63;;
55655;SDS011;41530;52.382;5.270;2023-01-19T02:22:23;2.65;;;0.50;;
55655;SDS011;41530;52.382;5.270;2023-01-19T02:24:51;4.75;;;0.70;;
55655;SDS011;41530;52.382;5.270;2023-01-19T02:27:18;2.45;;;0.60;;
55655;SDS011;41530;52.382;5.270;2023-01-19T02:29:45;1.90;;;0.47;;
55655;SDS011;41530;52.382;5.270;2023-01-19T02:32:12;8.05;;;0.68;;
55655;SDS011;41530;52.382;5.270;2023-01-19T02:34:38;3.10;;;0.80;;
55655;SDS011;41530;52.382;5.270;2023-01-19T02:37:06;5.82;;;0.65;;
55655;SDS011;41530;52.382;5.270;2023-01-19T02:39:36;4.63;;;0.77;;
55655;SDS011;41530;52.382;5.270;2023-01-19T02:42:21;1.88;;;0.50;;
55655;SDS011;41530;52.382;5.270;2023-01-19T02:44:49;8.20;;;0.60;;
55655;SDS011;41530;52.382;5.270;2023-01-19T02:47:16;4.50;;;0.63;;
55655;SDS011;41530;52.382;5.270;2023-01-19T02:49:43;3.47;;;0.75;;
55655;SDS011;41530;52.382;5.270;2023-01-19T02:52:13;2.17;;;0.45;;
55655;SDS011;41530;52.382;5.270;2023-01-19T03:03:30;3.88;;;0.77;;
55655;SDS011;41530;52.382;5.270;2023-01-19T03:06:03;4.25;;;0.70;;
55655;SDS011;41530;52.382;5.270;2023-01-19T03:11:16;2.45;;;0.60;;
55655;SDS011;41530;52.382;5.270;2023-01-19T03:13:53;4.53;;;0.65;;
55655;SDS011;41530;52.382;5.270;2023-01-19T03:16:46;2.00;;;0.60;;
55655;SDS011;41530;52.382;5.270;2023-01-19T03:19:20;1.73;;;0.43;;
55655;SDS011;41530;52.382;5.270;2023-01-19T03:21:51;2.97;;;0.55;;
55655;SDS011;41530;52.382;5.270;2023-01-19T03:24:21;4.80;;;0.70;;
55655;SDS011;41530;52.382;5.270;2023-01-19T03:26:53;2.42;;;0.60;;
55655;SDS011;41530;52.382;5.270;2023-01-19T03:29:27;3.17;;;0.80;;
55655;SDS011;41530;52.382;5.270;2023-01-19T03:32:00;6.55;;;0.70;;
55655;SDS011;41530;52.382;5.270;2023-01-19T03:34:28;6.35;;;0.63;;
55655;SDS011;41530;52.382;5.270;2023-01-19T03:36:59;3.60;;;0.60;;
55655;SDS011;41530;52.382;5.270;2023-01-19T03:39:27;2.75;;;0.63;;
55655;SDS011;41530;52.382;5.270;2023-01-19T03:41:58;3.60;;;0.70;;
55655;SDS011;41530;52.382;5.270;2023-01-19T03:44:35;2.58;;;0.60;;
55655;SDS011;41530;52.382;5.270;2023-01-19T03:47:05;5.28;;;0.63;;
55655;SDS011;41530;52.382;5.270;2023-01-19T03:49:34;1.65;;;0.60;;
55655;SDS011;41530;52.382;5.270;2023-01-19T03:52:08;5.63;;;0.60;;
55655;SDS011;41530;52.382;5.270;2023-01-19T03:54:35;3.92;;;0.70;;
55655;SDS011;41530;52.382;5.270;2023-01-19T03:57:04;4.10;;;0.57;;
55655;SDS011;41530;52.382;5.270;2023-01-19T03:59:31;6.03;;;0.77;;
55655;SDS011;41530;52.382;5.270;2023-01-19T04:02:00;4.90;;;0.93;;
55655;SDS011;41530;52.382;5.270;2023-01-19T04:04:29;7.88;;;0.70;;
55655;SDS011;41530;52.382;5.270;2023-01-19T04:06:56;3.28;;;0.77;;
55655;SDS011;41530;52.382;5.270;2023-01-19T04:09:23;8.52;;;1.15;;
55655;SDS011;41530;52.382;5.270;2023-01-19T04:11:53;4.72;;;0.88;;
55655;SDS011;41530;52.382;5.270;2023-01-19T04:14:21;7.00;;;1.20;;
55655;SDS011;41530;52.382;5.270;2023-01-19T04:16:48;7.45;;;0.82;;
55655;SDS011;41530;52.382;5.270;2023-01-19T04:19:18;6.25;;;1.08;;
55655;SDS011;41530;52.382;5.270;2023-01-19T04:21:46;2.65;;;0.80;;
55655;SDS011;41530;52.382;5.270;2023-01-19T04:24:13;5.35;;;0.70;;
55655;SDS011;41530;52.382;5.270;2023-01-19T04:26:43;8.63;;;1.10;;
55655;SDS011;41530;52.382;5.270;2023-01-19T04:29:15;5.30;;;1.02;;
55655;SDS011;41530;52.382;5.270;2023-01-19T04:31:43;3.35;;;0.80;;
55655;SDS011;41530;52.382;5.270;2023-01-19T04:34:10;5.75;;;0.77;;
55655;SDS011;41530;52.382;5.270;2023-01-19T04:36:40;5.25;;;0.70;;
55655;SDS011;41530;52.382;5.270;2023-01-19T04:39:07;5.70;;;0.98;;
55655;SDS011;41530;52.382;5.270;2023-01-19T04:41:34;3.83;;;0.80;;
55655;SDS011;41530;52.382;5.270;2023-01-19T04:44:01;3.90;;;0.77;;
55655;SDS011;41530;52.382;5.270;2023-01-19T04:46:30;3.58;;;0.93;;
55655;SDS011;41530;52.382;5.270;2023-01-19T04:48:57;10.02;;;0.90;;
55655;SDS011;41530;52.382;5.270;2023-01-19T04:51:24;7.32;;;0.90;;
55655;SDS011;41530;52.382;5.270;2023-01-19T04:53:55;2.42;;;0.75;;
55655;SDS011;41530;52.382;5.270;2023-01-19T04:56:23;2.72;;;0.90;;
55655;SDS011;41530;52.382;5.270;2023-01-19T04:58:50;5.45;;;0.75;;
55655;SDS011;41530;52.382;5.270;2023-01-19T05:01:16;4.30;;;1.00;;
55655;SDS011;41530;52.382;5.270;2023-01-19T05:03:46;4.38;;;0.90;;
55655;SDS011;41530;52.382;5.270;2023-01-19T05:06:14;8.40;;;1.17;;
55655;SDS011;41530;52.382;5.270;2023-01-19T05:08:41;5.97;;;1.13;;
55655;SDS011;41530;52.382;5.270;2023-01-19T05:11:10;3.50;;;0.98;;
55655;SDS011;41530;52.382;5.270;2023-01-19T05:13:37;5.60;;;1.02;;
55655;SDS011;41530;52.382;5.270;2023-01-19T05:16:07;5.88;;;1.02;;
55655;SDS011;41530;52.382;5.270;2023-01-19T05:18:34;10.05;;;1.40;;
55655;SDS011;41530;52.382;5.270;2023-01-19T05:21:04;7.18;;;1.10;;
55655;SDS011;41530;52.382;5.270;2023-01-19T05:23:33;6.88;;;1.20;;
55655;SDS011;41530;52.382;5.270;2023-01-19T05:26:02;6.88;;;1.23;;
55655;SDS011;41530;52.382;5.270;2023-01-19T05:28:30;9.02;;;1.20;;
55655;SDS011;41530;52.382;5.270;2023-01-19T05:31:00;6.35;;;1.20;;
55655;SDS011;41530;52.382;5.270;2023-01-19T05:33:29;6.80;;;1.13;;
55655;SDS011;41530;52.382;5.270;2023-01-19T05:35:56;7.68;;;1.10;;
55655;SDS011;41530;52.382;5.270;2023-01-19T05:38:24;7.47;;;1.33;;
55655;SDS011;41530;52.382;5.270;2023-01-19T05:41:01;7.38;;;1.23;;
55655;SDS011;41530;52.382;5.270;2023-01-19T05:43:30;9.57;;;1.50;;
55655;SDS011;41530;52.382;5.270;2023-01-19T05:45:58;5.43;;;1.00;;
55655;SDS011;41530;52.382;5.270;2023-01-19T05:48:26;5.10;;;1.05;;
55655;SDS011;41530;52.382;5.270;2023-01-19T05:50:55;6.90;;;1.10;;
55655;SDS011;41530;52.382;5.270;2023-01-19T05:53:23;8.80;;;1.33;;
55655;SDS011;41530;52.382;5.270;2023-01-19T05:55:57;8.73;;;1.13;;
55655;SDS011;41530;52.382;5.270;2023-01-19T05:58:24;5.78;;;1.40;;
55655;SDS011;41530;52.382;5.270;2023-01-19T06:00:54;5.53;;;1.30;;
55655;SDS011;41530;52.382;5.270;2023-01-19T06:03:21;4.93;;;1.35;;
55655;SDS011;41530;52.382;5.270;2023-01-19T06:05:51;4.88;;;1.30;;
55655;SDS011;41530;52.382;5.270;2023-01-19T06:08:18;6.22;;;1.20;;
55655;SDS011;41530;52.382;5.270;2023-01-19T06:10:47;6.15;;;1.10;;
55655;SDS011;41530;52.382;5.270;2023-01-19T06:13:14;6.88;;;1.23;;
55655;SDS011;41530;52.382;5.270;2023-01-19T06:15:43;7.80;;;1.30;;
55655;SDS011;41530;52.382;5.270;2023-01-19T06:18:11;4.70;;;0.90;;
55655;SDS011;41530;52.382;5.270;2023-01-19T06:20:43;7.22;;;1.20;;
55655;SDS011;41530;52.382;5.270;2023-01-19T06:23:10;3.80;;;1.13;;
55655;SDS011;41530;52.382;5.270;2023-01-19T06:25:41;6.75;;;1.17;;
55655;SDS011;41530;52.382;5.270;2023-01-19T06:28:11;7.97;;;1.05;;
55655;SDS011;41530;52.382;5.270;2023-01-19T06:30:38;8.52;;;1.30;;
55655;SDS011;41530;52.382;5.270;2023-01-19T06:33:07;7.57;;;1.50;;
55655;SDS011;41530;52.382;5.270;2023-01-19T06:35:34;4.63;;;1.15;;
55655;SDS011;41530;52.382;5.270;2023-01-19T06:38:04;6.38;;;1.25;;
55655;SDS011;41530;52.382;5.270;2023-01-19T06:40:33;5.20;;;1.20;;
55655;SDS011;41530;52.382;5.270;2023-01-19T06:43:00;10.43;;;1.50;;
55655;SDS011;41530;52.382;5.270;2023-01-19T06:45:30;7.35;;;1.40;;
55655;SDS011;41530;52.382;5.270;2023-01-19T06:47:57;6.47;;;1.10;;
55655;SDS011;41530;52.382;5.270;2023-01-19T06:50:26;9.27;;;1.30;;
55655;SDS011;41530;52.382;5.270;2023-01-19T06:52:53;5.70;;;1.35;;
55655;SDS011;41530;52.382;5.270;2023-01-19T06:55:22;7.13;;;1.20;;
55655;SDS011;41530;52.382;5.270;2023-01-19T06:57:56;8.80;;;1.70;;
55655;SDS011;41530;52.382;5.270;2023-01-19T07:00:27;9.63;;;1.27;;
55655;SDS011;41530;52.382;5.270;2023-01-19T07:02:54;8.77;;;1.40;;
55655;SDS011;41530;52.382;5.270;2023-01-19T07:05:23;7.32;;;1.17;;
55655;SDS011;41530;52.382;5.270;2023-01-19T07:07:55;8.50;;;1.20;;
55655;SDS011;41530;52.382;5.270;2023-01-19T07:10:23;6.13;;;1.30;;
55655;SDS011;41530;52.382;5.270;2023-01-19T07:12:50;9.60;;;1.40;;
55655;SDS011;41530;52.382;5.270;2023-01-19T07:15:20;8.93;;;1.23;;
55655;SDS011;41530;52.382;5.270;2023-01-19T07:17:47;7.35;;;1.10;;
55655;SDS011;41530;52.382;5.270;2023-01-19T07:20:16;7.15;;;1.25;;
55655;SDS011;41530;52.382;5.270;2023-01-19T07:22:53;4.95;;;1.05;;
55655;SDS011;41530;52.382;5.270;2023-01-19T07:25:22;8.13;;;1.10;;
55655;SDS011;41530;52.382;5.270;2023-01-19T07:27:55;7.90;;;1.10;;
55655;SDS011;41530;52.382;5.270;2023-01-19T07:30:25;6.10;;;1.00;;
55655;SDS011;41530;52.382;5.270;2023-01-19T07:32:55;5.25;;;1.08;;
55655;SDS011;41530;52.382;5.270;2023-01-19T07:35:25;7.68;;;1.00;;
55655;SDS011;41530;52.382;5.270;2023-01-19T07:37:56;3.55;;;0.90;;
55655;SDS011;41530;52.382;5.270;2023-01-19T07:40:24;5.60;;;1.20;;
55655;SDS011;41530;52.382;5.270;2023-01-19T07:42:51;4.60;;;1.10;;
55655;SDS011;41530;52.382;5.270;2023-01-19T07:45:19;6.47;;;1.17;;
55655;SDS011;41530;52.382;5.270;2023-01-19T07:47:48;9.60;;;1.10;;
55655;SDS011;41530;52.382;5.270;2023-01-19T07:50:18;5.88;;;1.20;;
55655;SDS011;41530;52.382;5.270;2023-01-19T07:52:49;4.53;;;0.75;;
55655;SDS011;41530;52.382;5.270;2023-01-19T07:55:19;7.30;;;0.88;;
55655;SDS011;41530;52.382;5.270;2023-01-19T07:57:50;4.93;;;1.00;;
55655;SDS011;41530;52.382;5.270;2023-01-19T08:00:17;3.50;;;1.00;;
55655;SDS011;41530;52.382;5.270;2023-01-19T08:02:47;4.85;;;0.90;;
55655;SDS011;41530;52.382;5.270;2023-01-19T08:05:16;3.38;;;0.80;;
55655;SDS011;41530;52.382;5.270;2023-01-19T08:07:44;5.63;;;1.17;;
55655;SDS011;41530;52.382;5.270;2023-01-19T08:10:14;3.25;;;0.82;;
55655;SDS011;41530;52.382;5.270;2023-01-19T08:12:43;4.45;;;0.70;;
55655;SDS011;41530;52.382;5.270;2023-01-19T08:15:10;3.15;;;0.63;;
55655;SDS011;41530;52.382;5.270;2023-01-19T08:17:37;4.45;;;0.80;;
55655;SDS011;41530;52.382;5.270;2023-01-19T08:20:04;4.07;;;0.85;;
55655;SDS011;41530;52.382;5.270;2023-01-19T08:22:31;4.03;;;1.00;;
55655;SDS011;41530;52.382;5.270;2023-01-19T08:24:58;1.88;;;0.60;;
55655;SDS011;41530;52.382;5.270;2023-01-19T08:27:27;3.75;;;0.90;;
55655;SDS011;41530;52.382;5.270;2023-01-19T08:29:54;4.45;;;0.60;;
55655;SDS011;41530;52.382;5.270;2023-01-19T08:32:21;2.95;;;0.60;;
55655;SDS011;41530;52.382;5.270;2023-01-19T08:34:48;5.40;;;1.00;;
55655;SDS011;41530;52.382;5.270;2023-01-19T08:37:17;3.03;;;0.75;;
55655;SDS011;41530;52.382;5.270;2023-01-19T08:39:47;3.72;;;0.82;;
55655;SDS011;41530;52.382;5.270;2023-01-19T08:42:15;4.85;;;0.68;;
55655;SDS011;41530;52.382;5.270;2023-01-19T08:44:42;4.35;;;0.88;;
55655;SDS011;41530;52.382;5.270;2023-01-19T08:47:23;4.07;;;0.93;;
55655;SDS011;41530;52.382;5.270;2023-01-19T08:49:51;4.38;;;0.80;;
55655;SDS011;41530;52.382;5.270;2023-01-19T08:52:18;2.30;;;0.60;;
55655;SDS011;41530;52.382;5.270;2023-01-19T08:54:44;2.17;;;0.77;;
55655;SDS011;41530;52.382;5.270;2023-01-19T08:57:11;4.38;;;1.00;;
55655;SDS011;41530;52.382;5.270;2023-01-19T08:59:39;0.82;;;0.47;;
55655;SDS011;41530;52.382;5.270;2023-01-19T09:02:07;2.40;;;0.73;;
55655;SDS011;41530;52.382;5.270;2023-01-19T09:04:35;2.63;;;0.70;;
55655;SDS011;41530;52.382;5.270;2023-01-19T09:07:03;4.45;;;0.95;;
55655;SDS011;41530;52.382;5.270;2023-01-19T09:09:34;1.52;;;0.68;;
55655;SDS011;41530;52.382;5.270;2023-01-19T09:12:05;1.67;;;0.60;;
55655;SDS011;41530;52.382;5.270;2023-01-19T09:14:33;1.38;;;0.70;;
55655;SDS011;41530;52.382;5.270;2023-01-19T09:17:01;1.48;;;0.52;;
55655;SDS011;41530;52.382;5.270;2023-01-19T09:19:30;1.90;;;0.63;;
55655;SDS011;41530;52.382;5.270;2023-01-19T09:22:00;2.33;;;0.50;;
55655;SDS011;41530;52.382;5.270;2023-01-19T09:24:28;1.75;;;0.50;;
55655;SDS011;41530;52.382;5.270;2023-01-19T09:26:57;1.95;;;0.60;;
55655;SDS011;41530;52.382;5.270;2023-01-19T09:29:24;2.75;;;1.00;;
55655;SDS011;41530;52.382;5.270;2023-01-19T09:31:53;2.50;;;0.60;;
55655;SDS011;41530;52.382;5.270;2023-01-19T09:34:22;3.40;;;0.55;;
55655;SDS011;41530;52.382;5.270;2023-01-19T09:36:55;3.55;;;0.80;;
55655;SDS011;41530;52.382;5.270;2023-01-19T09:39:27;2.67;;;0.57;;
55655;SDS011;41530;52.382;5.270;2023-01-19T09:41:56;2.50;;;0.55;;
55655;SDS011;41530;52.382;5.270;2023-01-19T09:44:36;1.95;;;0.57;;
55655;SDS011;41530;52.382;5.270;2023-01-19T09:47:16;2.67;;;0.50;;
55655;SDS011;41530;52.382;5.270;2023-01-19T09:49:46;3.08;;;0.70;;
55655;SDS011;41530;52.382;5.270;2023-01-19T09:52:14;1.67;;;0.43;;
55655;SDS011;41530;52.382;5.270;2023-01-19T09:57:25;3.38;;;0.60;;
55655;SDS011;41530;52.382;5.270;2023-01-19T09:59:52;1.60;;;0.68;;
55655;SDS011;41530;52.382;5.270;2023-01-19T10:02:36;1.75;;;0.50;;
55655;SDS011;41530;52.382;5.270;2023-01-19T10:07:41;1.42;;;0.60;;
55655;SDS011;41530;52.382;5.270;2023-01-19T10:10:24;2.42;;;0.50;;
55655;SDS011;41530;52.382;5.270;2023-01-19T10:15:44;1.35;;;0.60;;
55655;SDS011;41530;52.382;5.270;2023-01-19T10:18:16;3.35;;;0.60;;
55655;SDS011;41530;52.382;5.270;2023-01-19T10:20:54;2.83;;;0.52;;
55655;SDS011;41530;52.382;5.270;2023-01-19T10:26:36;2.03;;;0.90;;
55655;SDS011;41530;52.382;5.270;2023-01-19T10:29:29;0.50;;;0.45;;
55655;SDS011;41530;52.382;5.270;2023-01-19T10:32:03;1.20;;;0.40;;
55655;SDS011;41530;52.382;5.270;2023-01-19T10:34:32;5.20;;;0.65;;
55655;SDS011;41530;52.382;5.270;2023-01-19T10:37:03;1.17;;;0.57;;
55655;SDS011;41530;52.382;5.270;2023-01-19T10:39:35;2.30;;;0.50;;
55655;SDS011;41530;52.382;5.270;2023-01-19T10:42:04;4.00;;;0.55;;
55655;SDS011;41530;52.382;5.270;2023-01-19T10:44:35;2.83;;;0.70;;
55655;SDS011;41530;52.382;5.270;2023-01-19T10:47:02;2.20;;;0.55;;
55655;SDS011;41530;52.382;5.270;2023-01-19T10:49:37;1.02;;;0.60;;
55655;SDS011;41530;52.382;5.270;2023-01-19T10:54:45;1.17;;;0.55;;
55655;SDS011;41530;52.382;5.270;2023-01-19T10:57:24;4.85;;;0.77;;
55655;SDS011;41530;52.382;5.270;2023-01-19T10:59:51;2.20;;;0.60;;
55655;SDS011;41530;52.382;5.270;2023-01-19T11:02:22;3.53;;;0.68;;
55655;SDS011;41530;52.382;5.270;2023-01-19T11:04:55;3.65;;;0.75;;
55655;SDS011;41530;52.382;5.270;2023-01-19T11:07:24;2.60;;;0.65;;
55655;SDS011;41530;52.382;5.270;2023-01-19T11:12:45;5.85;;;0.90;;
55655;SDS011;41530;52.382;5.270;2023-01-19T11:15:19;1.15;;;0.50;;
55655;SDS011;41530;52.382;5.270;2023-01-19T11:17:49;2.85;;;1.00;;
55655;SDS011;41530;52.382;5.270;2023-01-19T11:20:20;1.23;;;0.45;;
55655;SDS011;41530;52.382;5.270;2023-01-19T11:22:48;3.55;;;0.60;;
55655;SDS011;41530;52.382;5.270;2023-01-19T11:25:27;2.42;;;0.88;;
55655;SDS011;41530;52.382;5.270;2023-01-19T11:27:56;1.63;;;0.70;;
55655;SDS011;41530;52.382;5.270;2023-01-19T11:30:52;2.40;;;0.60;;
55655;SDS011;41530;52.382;5.270;2023-01-19T11:37:00;1.48;;;0.52;;
55655;SDS011;41530;52.382;5.270;2023-01-19T11:39:29;1.48;;;0.70;;
55655;SDS011;41530;52.382;5.270;2023-01-19T11:42:07;1.92;;;0.70;;
55655;SDS011;41530;52.382;5.270;2023-01-19T11:45:00;3.35;;;0.50;;
55655;SDS011;41530;52.382;5.270;2023-01-19T11:47:36;1.92;;;0.55;;
55655;SDS011;41530;52.382;5.270;2023-01-19T11:50:26;2.13;;;0.60;;
55655;SDS011;41530;52.382;5.270;2023-01-19T11:53:33;2.22;;;0.60;;
55655;SDS011;41530;52.382;5.270;2023-01-19T11:58:30;0.95;;;0.60;;
55655;SDS011;41530;52.382;5.270;2023-01-19T12:01:08;2.05;;;0.50;;
55655;SDS011;41530;52.382;5.270;2023-01-19T12:03:40;3.80;;;0.60;;
55655;SDS011;41530;52.382;5.270;2023-01-19T12:06:11;0.90;;;0.50;;
55655;SDS011;41530;52.382;5.270;2023-01-19T12:11:05;2.30;;;0.50;;
55655;SDS011;41530;52.382;5.270;2023-01-19T12:13:37;1.92;;;0.63;;
55655;SDS011;41530;52.382;5.270;2023-01-19T12:18:57;2.47;;;0.70;;
55655;SDS011;41530;52.382;5.270;2023-01-19T12:21:26;2.45;;;0.45;;
55655;SDS011;41530;52.382;5.270;2023-01-19T12:34:48;1.83;;;0.50;;
55655;SDS011;41530;52.382;5.270;2023-01-19T12:39:55;1.58;;;0.50;;
55655;SDS011;41530;52.382;5.270;2023-01-19T12:42:23;1.23;;;0.40;;
55655;SDS011;41530;52.382;5.270;2023-01-19T12:44:51;2.30;;;0.60;;
55655;SDS011;41530;52.382;5.270;2023-01-19T12:47:35;2.13;;;0.88;;
55655;SDS011;41530;52.382;5.270;2023-01-19T12:50:06;0.85;;;0.30;;
55655;SDS011;41530;52.382;5.270;2023-01-19T12:52:46;2.00;;;0.70;;
55655;SDS011;41530;52.382;5.270;2023-01-19T12:55:26;1.10;;;0.40;;
55655;SDS011;41530;52.382;5.270;2023-01-19T12:58:05;1.08;;;0.50;;
55655;SDS011;41530;52.382;5.270;2023-01-19T13:00:33;0.95;;;0.40;;
55655;SDS011;41530;52.382;5.270;2023-01-19T13:03:01;0.82;;;0.65;;
55655;SDS011;41530;52.382;5.270;2023-01-19T13:18:57;1.20;;;0.40;;
55655;SDS011;41530;52.382;5.270;2023-01-19T13:23:53;2.22;;;0.40;;
55655;SDS011;41530;52.382;5.270;2023-01-19T13:26:23;2.85;;;0.60;;
55655;SDS011;41530;52.382;5.270;2023-01-19T13:28:54;1.73;;;0.43;;
55655;SDS011;41530;52.382;5.270;2023-01-19T13:31:25;2.95;;;0.52;;
55655;SDS011;41530;52.382;5.270;2023-01-19T13:33:59;2.00;;;0.50;;
55655;SDS011;41530;52.382;5.270;2023-01-19T13:36:31;2.75;;;0.50;;
55655;SDS011;41530;52.382;5.270;2023-01-19T13:39:05;3.08;;;0.50;;
55655;SDS011;41530;52.382;5.270;2023-01-19T13:41:37;2.38;;;0.60;;
55655;SDS011;41530;52.382;5.270;2023-01-19T13:44:15;2.13;;;0.45;;
55655;SDS011;41530;52.382;5.270;2023-01-19T13:46:43;2.70;;;0.50;;
55655;SDS011;41530;52.382;5.270;2023-01-19T13:54:33;0.75;;;0.35;;
55655;SDS011;41530;52.382;5.270;2023-01-19T13:57:01;0.65;;;0.35;;
55655;SDS011;41530;52.382;5.270;2023-01-19T13:59:30;0.88;;;0.57;;
55655;SDS011;41530;52.382;5.270;2023-01-19T14:01:56;1.10;;;0.60;;
55655;SDS011;41530;52.382;5.270;2023-01-19T14:04:30;1.40;;;0.40;;
55655;SDS011;41530;52.382;5.270;2023-01-19T14:07:10;1.38;;;0.60;;
55655;SDS011;41530;52.382;5.270;2023-01-19T14:09:41;2.90;;;0.45;;
55655;SDS011;41530;52.382;5.270;2023-01-19T14:12:14;2.40;;;0.45;;
55655;SDS011;41530;52.382;5.270;2023-01-19T14:14:44;2.75;;;0.50;;
55655;SDS011;41530;52.382;5.270;2023-01-19T14:17:22;1.30;;;0.45;;
55655;SDS011;41530;52.382;5.270;2023-01-19T14:19:49;1.25;;;0.50;;
55655;SDS011;41530;52.382;5.270;2023-01-19T14:22:16;0.77;;;0.50;;
55655;SDS011;41530;52.382;5.270;2023-01-19T14:24:45;1.70;;;0.45;;
55655;SDS011;41530;52.382;5.270;2023-01-19T14:29:45;1.27;;;0.35;;
55655;SDS011;41530;52.382;5.270;2023-01-19T14:38:11;0.88;;;0.45;;
55655;SDS011;41530;52.382;5.270;2023-01-19T14:40:35;1.08;;;0.47;;
55655;SDS011;41530;52.382;5.270;2023-01-19T14:43:09;0.50;;;0.40;;
55655;SDS011;41530;52.382;5.270;2023-01-19T14:45:39;1.60;;;0.40;;
55655;SDS011;41530;52.382;5.270;2023-01-19T14:51:22;1.63;;;0.40;;
55655;SDS011;41530;52.382;5.270;2023-01-19T14:53:50;1.85;;;0.40;;
55655;SDS011;41530;52.382;5.270;2023-01-19T14:56:39;0.50;;;0.30;;
55655;SDS011;41530;52.382;5.270;2023-01-19T14:59:11;0.90;;;0.43;;
55655;SDS011;41530;52.382;5.270;2023-01-19T15:01:43;3.33;;;0.68;;
55655;SDS011;41530;52.382;5.270;2023-01-19T15:04:24;1.25;;;0.40;;
55655;SDS011;41530;52.382;5.270;2023-01-19T15:06:51;0.70;;;0.40;;
55655;SDS011;41530;52.382;5.270;2023-01-19T15:09:18;0.98;;;0.40;;
55655;SDS011;41530;52.382;5.270;2023-01-19T15:11:46;0.45;;;0.30;;
55655;SDS011;41530;52.382;5.270;2023-01-19T15:14:13;2.13;;;0.40;;
55655;SDS011;41530;52.382;5.270;2023-01-19T15:16:40;0.75;;;0.28;;
55655;SDS011;41530;52.382;5.270;2023-01-19T15:19:11;1.00;;;0.52;;
55655;SDS011;41530;52.382;5.270;2023-01-19T15:21:41;0.90;;;0.30;;
55655;SDS011;41530;52.382;5.270;2023-01-19T15:24:10;1.80;;;0.40;;
55655;SDS011;41530;52.382;5.270;2023-01-19T15:26:42;1.40;;;0.45;;
55655;SDS011;41530;52.382;5.270;2023-01-19T15:29:22;0.70;;;0.40;;
55655;SDS011;41530;52.382;5.270;2023-01-19T15:31:50;2.15;;;0.57;;
55655;SDS011;41530;52.382;5.270;2023-01-19T15:34:20;1.48;;;0.40;;
55655;SDS011;41530;52.382;5.270;2023-01-19T15:36:47;0.85;;;0.50;;
55655;SDS011;41530;52.382;5.270;2023-01-19T15:39:16;0.95;;;0.40;;
55655;SDS011;41530;52.382;5.270;2023-01-19T15:41:45;1.70;;;0.55;;
55655;SDS011;41530;52.382;5.270;2023-01-19T15:44:12;1.80;;;0.43;;
55655;SDS011;41530;52.382;5.270;2023-01-19T15:46:38;1.50;;;0.40;;
55655;SDS011;41530;52.382;5.270;2023-01-19T15:49:06;0.52;;;0.35;;
55655;SDS011;41530;52.382;5.270;2023-01-19T15:51:35;1.73;;;0.38;;
55655;SDS011;41530;52.382;5.270;2023-01-19T15:54:12;1.23;;;0.45;;
55655;SDS011;41530;52.382;5.270;2023-01-19T15:56:40;0.52;;;0.43;;
55655;SDS011;41530;52.382;5.270;2023-01-19T15:59:13;2.60;;;0.50;;
55655;SDS011;41530;52.382;5.270;2023-01-19T16:01:43;0.32;;;0.30;;
55655;SDS011;41530;52.382;5.270;2023-01-19T16:04:11;1.13;;;0.50;;
55655;SDS011;41530;52.382;5.270;2023-01-19T16:06:38;1.52;;;0.52;;
55655;SDS011;41530;52.382;5.270;2023-01-19T16:09:14;0.45;;;0.30;;
55655;SDS011;41530;52.382;5.270;2023-01-19T16:11:48;1.10;;;0.40;;
55655;SDS011;41530;52.382;5.270;2023-01-19T16:14:20;1.63;;;0.32;;
55655;SDS011;41530;52.382;5.270;2023-01-19T16:16:50;1.42;;;0.43;;
55655;SDS011;41530;52.382;5.270;2023-01-19T16:19:16;0.90;;;0.45;;
55655;SDS011;41530;52.382;5.270;2023-01-19T16:21:47;1.90;;;0.40;;
55655;SDS011;41530;52.382;5.270;2023-01-19T16:24:22;1.17;;;0.52;;
55655;SDS011;41530;52.382;5.270;2023-01-19T16:26:50;0.80;;;0.28;;
55655;SDS011;41530;52.382;5.270;2023-01-19T16:29:17;1.13;;;0.30;;
55655;SDS011;41530;52.382;5.270;2023-01-19T16:31:43;0.70;;;0.38;;
55655;SDS011;41530;52.382;5.270;2023-01-19T16:34:15;1.58;;;0.40;;